createdAt,value
2023-05-19T00:00:40.082Z,11.50
2023-05-19T00:03:09.297Z,10.00
2023-05-19T00:05:46.385Z,13.67
2023-05-19T00:08:17.636Z,14.00
2023-05-19T00:10:46.397Z,12.67
2023-05-19T00:13:13.946Z,12.00
2023-05-19T00:15:42.416Z,17.00
2023-05-19T00:18:14.282Z,17.00
2023-05-19T00:20:43.299Z,15.00
2023-05-19T00:23:11.778Z,12.00
2023-05-19T00:25:39.074Z,15.00
2023-05-19T00:28:06.468Z,15.00
2023-05-19T00:30:33.987Z,13.00
2023-05-19T00:33:02.357Z,13.00
2023-05-19T00:35:30.609Z,15.67
2023-05-19T00:37:58.007Z,16.50
2023-05-19T00:40:27.522Z,12.33
2023-05-19T00:42:54.804Z,14.50
2023-05-19T00:45:23.214Z,14.33
2023-05-19T00:47:50.586Z,14.00
2023-05-19T00:50:17.975Z,15.00
2023-05-19T00:52:45.381Z,13.00
2023-05-19T00:55:14.240Z,13.50
2023-05-19T00:57:43.716Z,11.33
2023-05-19T01:00:12.850Z,14.00
2023-05-19T01:02:41.758Z,13.00
2023-05-19T01:05:10.648Z,15.33
2023-05-19T01:07:41.960Z,13.00
2023-05-19T01:10:10.293Z,13.50
2023-05-19T01:12:39.901Z,14.67
2023-05-19T01:15:10.155Z,13.33
2023-05-19T01:18:03.711Z,16.67
2023-05-19T01:20:48.398Z,14.00
2023-05-19T01:24:09.309Z,14.60
2023-05-19T01:27:07.816Z,14.00
2023-05-19T01:30:25.543Z,15.33
2023-05-19T01:32:59.827Z,13.50
2023-05-19T01:35:29.340Z,18.67
2023-05-19T01:37:59.709Z,16.00
2023-05-19T01:40:29.554Z,15.33
2023-05-19T01:43:00.306Z,17.67
2023-05-19T01:45:34.428Z,15.50
2023-05-19T01:48:06.030Z,20.33
2023-05-19T01:50:35.511Z,15.00
2023-05-19T01:53:02.881Z,15.00
2023-05-19T01:55:31.027Z,15.50
2023-05-19T01:58:11.614Z,17.50
2023-05-19T02:01:08.961Z,8.80
2023-05-19T02:03:57.347Z,13.00
2023-05-19T02:06:28.408Z,15.67
2023-05-19T02:09:16.551Z,12.33
2023-05-19T02:12:11.682Z,14.00
2023-05-19T02:15:14.596Z,13.50
2023-05-19T02:17:48.643Z,14.00
2023-05-19T02:20:17.605Z,15.00
2023-05-19T02:22:46.296Z,13.00
2023-05-19T02:25:14.795Z,15.00
2023-05-19T02:27:42.726Z,15.00
2023-05-19T02:30:11.412Z,12.00
2023-05-19T02:32:38.742Z,13.00
2023-05-19T02:35:07.253Z,14.67
2023-05-19T02:37:35.600Z,19.50
2023-05-19T02:40:02.913Z,17.50
2023-05-19T02:42:31.593Z,19.00
2023-05-19T02:45:00.899Z,18.50
2023-05-19T02:47:28.330Z,17.00
2023-05-19T02:49:55.896Z,21.00
2023-05-19T02:52:23.218Z,20.00
2023-05-19T02:54:50.659Z,18.50
2023-05-19T02:57:17.974Z,20.00
2023-05-19T02:59:46.194Z,17.00
2023-05-19T03:02:14.517Z,18.00
2023-05-19T03:04:43.060Z,15.00
2023-05-19T03:07:11.281Z,10.00
2023-05-19T03:09:40.398Z,20.00
2023-05-19T03:12:08.712Z,28.00
2023-05-19T03:14:41.359Z,28.50
2023-05-19T03:17:10.915Z,28.00
2023-05-19T03:19:39.179Z,26.33
2023-05-19T03:22:07.562Z,22.50
2023-05-19T03:24:37.013Z,24.50
2023-05-19T03:27:08.442Z,25.00
2023-05-19T03:29:37.138Z,28.67
2023-05-19T03:32:05.773Z,26.50
2023-05-19T03:34:34.163Z,27.00
2023-05-19T03:37:02.432Z,24.00
2023-05-19T03:39:29.803Z,25.00
2023-05-19T03:41:58.264Z,25.00
2023-05-19T03:44:26.555Z,20.00
2023-05-19T03:46:54.785Z,22.00
2023-05-19T03:49:22.993Z,25.50
2023-05-19T03:51:51.328Z,22.50
2023-05-19T03:54:21.278Z,21.00
2023-05-19T03:56:49.525Z,23.00
2023-05-19T03:59:16.853Z,23.00
2023-05-19T04:01:45.073Z,20.00
2023-05-19T04:04:12.524Z,16.00
2023-05-19T04:06:40.729Z,17.00
2023-05-19T04:09:15.670Z,16.00
2023-05-19T04:11:43.841Z,16.67
2023-05-19T04:14:12.025Z,14.00
2023-05-19T04:16:41.926Z,16.33
2023-05-19T04:19:10.141Z,16.67
2023-05-19T04:21:38.360Z,15.67
2023-05-19T04:24:06.734Z,15.00
2023-05-19T04:26:34.702Z,14.00
2023-05-19T04:29:04.950Z,16.00
2023-05-19T04:31:35.512Z,12.40
2023-05-19T04:34:02.858Z,13.00
2023-05-19T04:36:30.134Z,13.00
2023-05-19T04:39:02.610Z,11.67
2023-05-19T04:41:31.746Z,9.60
2023-05-19T04:43:59.059Z,11.00
2023-05-19T04:46:27.579Z,11.00
2023-05-19T04:48:57.342Z,12.00
2023-05-19T04:51:31.641Z,11.00
2023-05-19T04:53:58.984Z,10.00
2023-05-19T04:56:27.616Z,10.00
2023-05-19T04:58:56.759Z,13.20
2023-05-19T05:01:26.458Z,12.00
2023-05-19T05:03:59.048Z,12.00
2023-05-19T05:06:28.809Z,11.00
2023-05-19T05:08:57.198Z,13.00
2023-05-19T05:11:25.961Z,14.00
2023-05-19T05:13:53.639Z,13.00
2023-05-19T05:16:23.067Z,12.20
2023-05-19T05:18:51.675Z,12.67
2023-05-19T05:21:20.189Z,12.00
2023-05-19T05:23:47.887Z,14.00
2023-05-19T05:26:19.964Z,12.00
2023-05-19T05:28:48.156Z,15.67
2023-05-19T05:31:17.262Z,14.67
2023-05-19T05:33:45.872Z,16.67
2023-05-19T05:36:13.937Z,15.00
2023-05-19T05:38:42.068Z,12.67
2023-05-19T05:41:09.392Z,12.50
2023-05-19T05:43:36.753Z,11.00
2023-05-19T05:46:04.200Z,12.00
2023-05-19T05:48:32.685Z,13.33
2023-05-19T05:51:00.035Z,11.00
2023-05-19T05:53:32.373Z,12.00
2023-05-19T05:56:00.016Z,13.00
2023-05-19T05:58:29.122Z,7.60
2023-05-19T06:00:58.691Z,11.20
2023-05-19T06:03:29.556Z,11.75
2023-05-19T06:05:56.942Z,11.00
2023-05-19T06:08:24.272Z,11.00
2023-05-19T06:10:52.346Z,11.67
2023-05-19T06:13:24.236Z,12.33
2023-05-19T06:15:52.046Z,15.50
2023-05-19T06:18:20.220Z,13.33
2023-05-19T06:20:48.339Z,13.67
2023-05-19T06:23:16.496Z,13.33
2023-05-19T06:25:44.607Z,15.33
2023-05-19T06:28:12.807Z,14.33
2023-05-19T06:30:40.212Z,11.00
2023-05-19T06:33:07.587Z,14.00
2023-05-19T06:35:34.910Z,13.00
2023-05-19T06:38:02.257Z,12.00
2023-05-19T06:40:29.705Z,13.00
2023-05-19T06:42:57.780Z,10.67
2023-05-19T06:45:25.072Z,13.50
2023-05-19T06:47:54.344Z,13.33
2023-05-19T06:50:22.543Z,12.00
2023-05-19T06:52:49.932Z,13.00
2023-05-19T06:55:17.960Z,11.67
2023-05-19T06:57:46.254Z,13.00
2023-05-19T07:00:17.946Z,13.67
2023-05-19T07:02:47.539Z,11.33
2023-05-19T07:05:16.297Z,12.33
2023-05-19T07:07:44.685Z,12.67
2023-05-19T07:10:12.748Z,15.67
2023-05-19T07:12:40.910Z,12.33
2023-05-19T07:15:09.426Z,11.33
2023-05-19T07:17:37.438Z,15.67
2023-05-19T07:20:10.348Z,13.67
2023-05-19T07:22:40.158Z,9.67
2023-05-19T07:25:09.217Z,13.00
2023-05-19T07:27:37.292Z,11.67
2023-05-19T07:30:06.030Z,13.00
2023-05-19T07:32:34.212Z,15.67
2023-05-19T07:35:02.497Z,16.00
2023-05-19T07:37:30.723Z,11.33
2023-05-19T07:39:58.835Z,14.00
2023-05-19T07:42:26.965Z,13.00
2023-05-19T07:44:55.132Z,13.00
2023-05-19T07:47:23.201Z,14.00
2023-05-19T07:49:52.166Z,13.33
2023-05-19T07:52:20.184Z,13.00
2023-05-19T07:54:48.327Z,13.50
2023-05-19T07:57:16.915Z,16.67
2023-05-19T07:59:45.351Z,10.33
2023-05-19T08:02:13.379Z,15.33
2023-05-19T08:04:41.617Z,13.67
2023-05-19T08:07:09.665Z,14.00
2023-05-19T08:09:37.668Z,14.00
2023-05-19T08:12:06.112Z,14.67
2023-05-19T08:14:35.129Z,12.67
2023-05-19T08:17:03.139Z,11.00
2023-05-19T08:19:31.428Z,11.33
2023-05-19T08:22:01.451Z,14.00
2023-05-19T08:24:34.082Z,12.67
2023-05-19T08:27:05.399Z,13.33
2023-05-19T08:29:33.413Z,9.00
2023-05-19T08:32:02.709Z,12.00
2023-05-19T08:34:31.266Z,14.33
2023-05-19T08:37:00.014Z,10.00
2023-05-19T08:39:28.485Z,10.67
2023-05-19T08:41:56.921Z,12.00
2023-05-19T08:44:24.994Z,10.33
2023-05-19T08:46:56.541Z,13.67
2023-05-19T08:49:31.004Z,11.67
2023-05-19T08:52:06.601Z,12.67
2023-05-19T08:54:46.393Z,14.00
2023-05-19T08:57:15.759Z,11.00
2023-05-19T08:59:44.547Z,12.33
2023-05-19T09:02:14.770Z,12.33
2023-05-19T09:04:46.367Z,14.33
2023-05-19T09:07:15.895Z,10.33
2023-05-19T09:09:44.247Z,12.00
2023-05-19T09:12:13.844Z,10.67
2023-05-19T09:14:42.712Z,12.00
2023-05-19T09:17:11.095Z,14.33
2023-05-19T09:19:44.708Z,12.00
2023-05-19T09:22:16.624Z,10.20
2023-05-19T09:24:45.204Z,11.67
2023-05-19T09:27:17.332Z,12.00
2023-05-19T09:29:45.370Z,12.33
2023-05-19T09:32:13.458Z,11.00
2023-05-19T09:34:42.390Z,11.67
2023-05-19T09:37:13.654Z,8.67
2023-05-19T09:39:41.719Z,10.67
2023-05-19T09:42:09.857Z,14.33
2023-05-19T09:44:37.994Z,13.00
2023-05-19T09:47:06.122Z,10.33
2023-05-19T09:49:34.145Z,8.67
2023-05-19T09:52:06.072Z,11.33
2023-05-19T09:54:34.690Z,11.00
2023-05-19T09:57:07.704Z,12.33
2023-05-19T09:59:39.245Z,10.00
2023-05-19T10:02:18.450Z,11.67
2023-05-19T10:04:48.692Z,9.33
2023-05-19T10:07:17.955Z,10.00
2023-05-19T10:09:46.726Z,12.33
2023-05-19T10:12:15.392Z,10.33
2023-05-19T10:14:43.408Z,10.00
2023-05-19T10:17:12.801Z,12.67
2023-05-19T10:19:41.839Z,10.33
2023-05-19T10:22:09.846Z,9.00
2023-05-19T10:24:38.006Z,8.33
2023-05-19T10:27:12.234Z,10.00
2023-05-19T10:29:44.410Z,9.67
2023-05-19T10:32:17.917Z,10.00
2023-05-19T10:35:32.687Z,8.67
2023-05-19T10:38:20.948Z,9.60
2023-05-19T10:41:14.489Z,7.80
2023-05-19T10:43:55.223Z,8.67
2023-05-19T10:46:28.751Z,7.60
2023-05-19T10:48:56.977Z,9.33
2023-05-19T10:51:34.689Z,13.00
2023-05-19T10:54:12.071Z,8.33
2023-05-19T10:56:47.443Z,8.67
2023-05-19T10:59:35.844Z,9.67
2023-05-19T11:02:08.887Z,9.33
2023-05-19T11:04:54.287Z,9.00
2023-05-19T11:07:24.998Z,10.40
2023-05-19T11:09:54.839Z,12.20
2023-05-19T11:12:25.245Z,10.67
2023-05-19T11:14:55.060Z,7.67
2023-05-19T11:17:25.950Z,10.33
2023-05-19T11:19:59.572Z,9.00
2023-05-19T11:22:28.856Z,10.00
2023-05-19T11:24:58.126Z,12.00
2023-05-19T11:27:38.490Z,11.00
2023-05-19T11:30:07.718Z,11.00
2023-05-19T11:32:39.678Z,10.00
2023-05-19T11:35:10.129Z,9.33
2023-05-19T11:37:40.574Z,10.00
2023-05-19T11:40:09.677Z,9.00
2023-05-19T11:42:37.895Z,12.33
2023-05-19T11:45:07.160Z,11.33
2023-05-19T11:47:47.107Z,9.67
2023-05-19T11:50:23.586Z,8.33
2023-05-19T11:52:52.959Z,10.00
2023-05-19T11:55:25.519Z,12.33
2023-05-19T12:00:37.786Z,8.33
2023-05-19T12:03:06.602Z,12.00
2023-05-19T12:05:41.882Z,11.00
2023-05-19T12:08:12.427Z,9.00
2023-05-19T12:10:41.857Z,6.20
2023-05-19T12:13:10.733Z,13.00
2023-05-19T12:15:39.394Z,11.33
2023-05-19T12:18:08.015Z,10.67
2023-05-19T12:20:36.406Z,10.67
2023-05-19T12:23:05.982Z,11.00
2023-05-19T12:25:34.474Z,10.33
2023-05-19T12:28:03.691Z,6.33
2023-05-19T12:30:33.440Z,10.00
2023-05-19T12:33:03.103Z,9.00
2023-05-19T12:35:36.484Z,9.67
2023-05-19T12:38:05.836Z,10.67
2023-05-19T12:40:42.491Z,12.00
2023-05-19T12:43:23.196Z,11.67
2023-05-19T12:45:51.569Z,12.33
2023-05-19T12:48:23.143Z,11.00
2023-05-19T12:50:55.916Z,13.33
2023-05-19T12:53:27.921Z,11.00
2023-05-19T12:55:56.308Z,12.33
2023-05-19T12:58:24.542Z,12.33
2023-05-19T13:01:00.667Z,13.00
2023-05-19T13:03:29.031Z,13.00
2023-05-19T13:05:59.820Z,14.67
2023-05-19T13:08:28.040Z,13.00
2023-05-19T13:10:56.386Z,12.00
2023-05-19T13:13:24.504Z,12.33
2023-05-19T13:15:52.679Z,13.67
2023-05-19T13:18:20.695Z,14.00
2023-05-19T13:20:53.187Z,13.00
2023-05-19T13:23:21.269Z,13.33
2023-05-19T13:25:50.978Z,12.00
2023-05-19T13:28:19.332Z,14.33
2023-05-19T13:30:47.491Z,14.00
2023-05-19T13:33:15.904Z,13.00
2023-05-19T13:35:43.992Z,10.00
2023-05-19T13:38:12.201Z,11.67
2023-05-19T13:40:40.640Z,9.67
2023-05-19T13:43:09.183Z,11.67
2023-05-19T13:45:37.664Z,11.67
2023-05-19T13:48:07.826Z,10.67
2023-05-19T13:50:36.046Z,7.00
2023-05-19T13:53:04.280Z,11.33
2023-05-19T13:55:33.358Z,12.33
2023-05-19T13:58:01.510Z,11.67
2023-05-19T14:00:32.029Z,11.00
2023-05-19T14:03:00.714Z,15.00
2023-05-19T14:05:29.285Z,14.33
2023-05-19T14:07:58.259Z,14.67
2023-05-19T14:10:26.544Z,14.00
2023-05-19T14:13:29.046Z,13.67
2023-05-19T14:15:42.712Z,13.33
2023-05-19T14:18:11.373Z,14.33
2023-05-19T14:20:39.451Z,14.00
2023-05-19T14:23:07.490Z,14.00
2023-05-19T14:25:35.611Z,14.00
2023-05-19T14:28:03.679Z,12.00
2023-05-19T14:30:31.934Z,14.00
2023-05-19T14:33:00.569Z,14.00
2023-05-19T14:35:29.061Z,11.67
2023-05-19T14:37:57.052Z,13.67
2023-05-19T14:40:25.071Z,13.00
2023-05-19T14:42:53.134Z,13.67
2023-05-19T14:45:21.344Z,12.33
2023-05-19T14:47:49.593Z,13.33
2023-05-19T14:50:17.746Z,14.67
2023-05-19T14:52:46.040Z,10.67
2023-05-19T14:55:14.293Z,14.00
2023-05-19T14:57:42.341Z,11.67
2023-05-19T15:00:10.977Z,13.00
2023-05-19T15:02:39.226Z,11.67
2023-05-19T15:05:07.693Z,11.00
2023-05-19T15:07:35.798Z,12.00
2023-05-19T15:10:04.936Z,9.33
2023-05-19T15:12:32.949Z,12.67
2023-05-19T15:15:01.253Z,13.33
2023-05-19T15:17:29.387Z,13.67
2023-05-19T15:19:57.445Z,11.33
2023-05-19T15:22:25.710Z,13.67
2023-05-19T15:24:53.765Z,12.00
2023-05-19T15:27:21.836Z,11.00
2023-05-19T15:29:49.889Z,13.00
2023-05-19T15:32:17.923Z,12.00
2023-05-19T15:34:46.089Z,13.33
2023-05-19T15:37:14.088Z,13.33
2023-05-19T15:39:42.244Z,13.67
2023-05-19T15:42:10.233Z,12.33
2023-05-19T15:44:38.879Z,13.33
2023-05-19T15:47:07.071Z,11.67
2023-05-19T15:49:36.841Z,13.00
2023-05-19T15:52:05.104Z,14.00
2023-05-19T15:54:33.102Z,15.00
2023-05-19T15:57:01.239Z,14.67
2023-05-19T15:59:30.348Z,58.00
2023-05-19T16:01:58.580Z,17.00
2023-05-19T16:04:26.790Z,12.67
2023-05-19T16:06:54.916Z,13.33
2023-05-19T16:09:22.916Z,12.00
2023-05-19T16:11:51.512Z,17.50
2023-05-19T16:14:19.582Z,15.33
2023-05-19T16:16:47.760Z,13.50
2023-05-19T16:19:16.074Z,16.00
2023-05-19T16:21:44.621Z,18.00
2023-05-19T16:24:12.697Z,14.67
2023-05-19T16:26:41.007Z,17.00
2023-05-19T16:29:09.170Z,17.00
2023-05-19T16:31:37.392Z,17.00
2023-05-19T16:34:05.571Z,15.00
2023-05-19T16:36:33.677Z,16.33
2023-05-19T16:39:01.870Z,17.50
2023-05-19T16:41:30.031Z,14.50
2023-05-19T16:43:58.273Z,16.00
2023-05-19T16:46:27.342Z,14.00
2023-05-19T16:48:56.615Z,14.00
2023-05-19T16:51:24.854Z,17.50
2023-05-19T16:53:52.970Z,15.33
2023-05-19T16:56:22.040Z,12.33
2023-05-19T16:58:50.149Z,15.00
2023-05-19T17:01:18.162Z,14.33
2023-05-19T17:03:46.180Z,16.33
2023-05-19T17:06:14.342Z,15.00
2023-05-19T17:08:42.548Z,14.00
2023-05-19T17:11:10.798Z,16.00
2023-05-19T17:13:39.546Z,15.00
2023-05-19T17:16:07.717Z,14.33
2023-05-19T17:18:36.052Z,17.00
2023-05-19T17:21:05.551Z,15.00
2023-05-19T17:23:33.827Z,19.00
2023-05-19T17:26:02.126Z,65.00
2023-05-19T17:28:29.421Z,68.50
2023-05-19T17:31:01.694Z,76.63
2023-05-19T17:33:30.534Z,53.67
2023-05-19T17:35:58.773Z,53.33
2023-05-19T17:38:27.797Z,28.33
2023-05-19T17:41:04.777Z,25.33
2023-05-19T17:43:33.103Z,31.00
2023-05-19T17:46:01.447Z,29.67
2023-05-19T17:48:30.077Z,27.67
2023-05-19T17:50:59.000Z,27.00
2023-05-19T17:53:27.541Z,32.00
2023-05-19T17:56:01.541Z,29.00
2023-05-19T17:58:30.120Z,28.67
2023-05-19T18:00:58.598Z,25.00
2023-05-19T18:03:27.318Z,28.67
2023-05-19T18:05:56.081Z,50.00
2023-05-19T18:08:24.759Z,34.33
2023-05-19T18:10:55.188Z,33.00
2023-05-19T18:13:24.346Z,32.33
2023-05-19T18:15:53.170Z,30.33
2023-05-19T18:18:21.954Z,38.67
2023-05-19T18:20:51.448Z,43.33
2023-05-19T18:23:20.470Z,51.00
2023-05-19T18:25:51.580Z,53.00
2023-05-19T18:28:20.772Z,66.25
2023-05-19T18:31:04.887Z,64.75
2023-05-19T18:33:33.795Z,55.67
2023-05-19T18:36:02.254Z,52.00
2023-05-19T18:38:30.535Z,55.00
2023-05-19T18:41:00.927Z,57.67
2023-05-19T18:43:30.389Z,64.75
2023-05-19T18:45:59.505Z,58.50
2023-05-19T18:48:28.271Z,61.67
2023-05-19T18:50:57.434Z,58.33
2023-05-19T18:53:25.918Z,55.00
2023-05-19T18:55:54.109Z,42.00
2023-05-19T18:58:22.348Z,35.00
2023-05-19T19:00:50.754Z,25.67
2023-05-19T19:03:19.045Z,24.00
2023-05-19T19:05:55.450Z,39.33
2023-05-19T19:08:23.782Z,32.33
2023-05-19T19:10:52.351Z,33.00
2023-05-19T19:13:21.127Z,32.00
2023-05-19T19:15:50.102Z,37.00
2023-05-19T19:18:18.312Z,32.33
2023-05-19T19:20:46.608Z,31.00
2023-05-19T19:23:18.223Z,49.00
2023-05-19T19:25:47.476Z,58.33
2023-05-19T19:28:15.846Z,56.33
2023-05-19T19:30:46.432Z,54.00
2023-05-19T19:33:14.661Z,49.67
2023-05-19T19:35:47.140Z,48.33
2023-05-19T19:38:15.365Z,54.33
2023-05-19T19:40:44.366Z,49.00
2023-05-19T19:43:12.582Z,45.33
2023-05-19T19:45:41.926Z,50.33
2023-05-19T19:48:10.281Z,39.00
2023-05-19T19:50:38.552Z,43.33
2023-05-19T19:53:08.969Z,40.00
2023-05-19T19:55:37.988Z,41.33
2023-05-19T19:58:06.252Z,43.33
2023-05-19T20:00:34.800Z,57.00
2023-05-19T20:03:05.529Z,60.00
2023-05-19T20:05:34.179Z,64.00
2023-05-19T20:08:03.241Z,64.50
2023-05-19T20:10:32.410Z,61.25
2023-05-19T20:13:00.892Z,51.00
2023-05-19T20:15:29.917Z,47.00
2023-05-19T20:17:58.103Z,44.00
2023-05-19T20:20:26.442Z,41.33
2023-05-19T20:22:54.642Z,41.67
2023-05-19T20:25:23.710Z,43.33
2023-05-19T20:27:52.130Z,46.00
2023-05-19T20:30:21.216Z,41.33
2023-05-19T20:32:49.503Z,42.33
2023-05-19T20:35:17.742Z,41.33
2023-05-19T20:37:46.006Z,42.67
2023-05-19T20:40:14.382Z,42.00
2023-05-19T20:42:42.652Z,40.33
2023-05-19T20:45:11.796Z,40.33
2023-05-19T20:47:40.008Z,36.00
2023-05-19T20:50:08.786Z,31.67
2023-05-19T20:52:36.983Z,34.00
2023-05-19T20:55:06.308Z,31.33
2023-05-19T20:57:34.837Z,29.00
2023-05-19T21:00:03.657Z,40.67
2023-05-19T21:02:31.864Z,40.00
2023-05-19T21:05:00.130Z,36.33
2023-05-19T21:07:28.371Z,30.33
2023-05-19T21:09:57.900Z,31.00
2023-05-19T21:12:28.870Z,30.00
2023-05-19T21:14:57.898Z,39.00
2023-05-19T21:17:26.186Z,38.67
2023-05-19T21:19:58.194Z,31.67
2023-05-19T21:22:27.718Z,31.00
2023-05-19T21:24:57.241Z,30.00
2023-05-19T21:27:25.738Z,29.00
2023-05-19T21:29:54.502Z,29.67
2023-05-19T21:32:22.717Z,28.00
2023-05-19T21:34:50.222Z,31.00
2023-05-19T21:37:18.486Z,31.00
2023-05-19T21:39:46.788Z,41.00
2023-05-19T21:42:14.968Z,44.67
2023-05-19T21:44:43.984Z,48.33
2023-05-19T21:47:12.426Z,52.33
2023-05-19T21:49:41.539Z,52.67
2023-05-19T21:52:10.142Z,41.33
2023-05-19T21:54:39.086Z,38.00
2023-05-19T21:57:07.450Z,45.67
2023-05-19T21:59:35.720Z,32.33
2023-05-19T22:02:04.072Z,33.00
2023-05-19T22:04:32.449Z,34.67
2023-05-19T22:07:02.028Z,45.33
2023-05-19T22:09:30.486Z,36.33
2023-05-19T22:11:58.717Z,36.33
2023-05-19T22:14:27.837Z,48.67
2023-05-19T22:16:56.134Z,47.00
2023-05-19T22:19:24.419Z,47.00
2023-05-19T22:22:02.022Z,48.33
2023-05-19T22:24:38.549Z,49.33
2023-05-19T22:27:08.428Z,34.00
2023-05-19T22:29:40.264Z,38.33
2023-05-19T22:32:12.262Z,40.67
2023-05-19T22:34:40.686Z,36.00
2023-05-19T22:37:08.877Z,39.00
2023-05-19T22:39:39.300Z,40.00
2023-05-19T22:42:08.292Z,39.33
2023-05-19T22:44:36.577Z,39.00
2023-05-19T22:47:05.744Z,53.33
2023-05-19T22:49:33.973Z,63.33
2023-05-19T22:52:03.023Z,66.25
2023-05-19T22:54:32.094Z,68.50
2023-05-19T22:57:00.325Z,35.67
2023-05-19T22:59:28.558Z,37.00
2023-05-19T23:01:56.742Z,40.00
2023-05-19T23:04:25.969Z,51.00
2023-05-19T23:06:54.255Z,47.00
2023-05-19T23:09:23.264Z,43.33
2023-05-19T23:11:51.690Z,57.33
2023-05-19T23:14:22.080Z,76.00
2023-05-19T23:16:50.446Z,62.33
2023-05-19T23:19:20.604Z,49.67
2023-05-19T23:21:49.793Z,42.33
2023-05-19T23:24:17.986Z,42.67
2023-05-19T23:26:46.230Z,39.00
2023-05-19T23:29:15.162Z,38.67
2023-05-19T23:31:44.662Z,37.33
2023-05-19T23:34:13.005Z,35.33
2023-05-19T23:36:41.291Z,35.67
2023-05-19T23:39:09.535Z,39.00
2023-05-19T23:41:37.836Z,32.33
2023-05-19T23:44:06.835Z,38.00
2023-05-19T23:46:35.216Z,40.33
2023-05-19T23:49:03.487Z,40.67
2023-05-19T23:51:31.878Z,36.67
2023-05-19T23:54:01.058Z,45.67
2023-05-19T23:56:29.280Z,37.67
2023-05-19T23:58:57.480Z,35.33
